Time;durP1;ratioP1;P1;durP2;ratioP2;P2;SDS_P1;SDS_P2;PMS_P1;PMS_P2;Temp;Humidity;BMP_temperature;BMP_pressure;BME280_temperature;BME280_humidity;BME280_pressure;Samples;Min_cycle;Max_cycle;Signal;HPM_P1;HPM_P2
2023/09/01 00:00:04;;;;;;;;;;;;;;;;;;;;;
2023/09/01 00:05:49;;;;;;;14.80;13.87;;;17.40;1.00;;;;;;4973910;28;20465;-84
2023/09/01 00:08:37;;;;;;;14.60;14.20;;;17.40;1.00;;;;;;4942290;28;20607;-84
2023/09/01 00:11:19;;;;;;;15.43;14.73;;;17.30;1.00;;;;;;4979627;28;21109;-85
2023/09/01 00:14:05;;;;;;;14.47;14.07;;;17.40;1.00;;;;;;4961470;28;20485;-84
2023/09/01 00:16:49;;;;;;;14.63;14.23;;;17.30;7.70;;;;;;4970690;28;20465;-84
2023/09/01 00:19:47;;;;;;;15.13;14.63;;;17.20;1.00;;;;;;4968218;28;20502;-83
2023/09/01 00:22:34;;;;;;;14.90;14.40;;;17.20;30.00;;;;;;4950750;28;20576;-84
2023/09/01 00:25:20;;;;;;;14.73;13.98;;;17.20;68.30;;;;;;4968797;28;20456;-84
2023/09/01 00:28:11;;;;;;;14.50;14.10;;;17.20;1.00;;;;;;4951244;28;20200;-84
2023/09/01 00:31:06;;;;;;;14.83;14.23;;;17.20;96.00;;;;;;4967589;28;20460;-84
2023/09/01 00:33:45;;;;;;;14.70;14.10;;;17.20;99.90;;;;;;4976832;28;20482;-84
2023/09/01 00:39:18;;;;;;;14.43;14.00;;;17.20;1.00;;;;;;4967777;28;20590;-84
2023/09/01 00:41:55;;;;;;;14.70;14.20;;;17.20;19.50;;;;;;4968559;28;20467;-82
2023/09/01 00:44:38;;;;;;;14.70;14.00;;;17.20;9.10;;;;;;4981471;28;20460;-84
2023/09/01 00:47:20;;;;;;;14.40;13.90;;;17.30;1.00;;;;;;4965986;28;20912;-84
2023/09/01 00:50:22;;;;;;;15.00;14.40;;;17.20;39.40;;;;;;4977744;28;20473;-83
2023/09/01 00:53:08;;;;;;;14.73;14.23;;;17.20;1.00;;;;;;4969343;28;20894;-82
2023/09/01 00:55:45;;;;;;;14.57;14.07;;;17.20;1.00;;;;;;4981976;28;20558;-83
2023/09/01 00:58:18;;;;;;;14.80;14.30;;;17.10;58.80;;;;;;4979752;28;20475;-84
2023/09/01 01:01:07;;;;;;;14.43;13.93;;;17.20;9.10;;;;;;4975467;28;20474;-83
2023/09/01 01:04:07;;;;;;;14.63;14.23;;;17.20;8.70;;;;;;4975165;28;20474;-83
2023/09/01 01:07:01;;;;;;;14.97;14.47;;;17.20;1.00;;;;;;4983530;28;20461;-84
2023/09/01 01:09:53;;;;;;;14.20;13.80;;;17.20;1.00;;;;;;4980363;28;20885;-83
2023/09/01 01:12:43;;;;;;;14.90;14.50;;;17.30;1.00;;;;;;4975526;28;20507;-83
2023/09/01 01:15:23;;;;;;;14.77;14.23;;;17.30;14.40;;;;;;4966933;28;20471;-84
2023/09/01 01:18:26;;;;;;;15.30;14.70;;;17.40;1.00;;;;;;4972296;28;20206;-83
2023/09/01 01:21:39;;;;;;;15.10;14.70;;;17.40;1.00;;;;;;4971123;28;20491;-83
2023/09/01 01:24:39;;;;;;;14.70;14.13;;;17.40;1.00;;;;;;4967992;28;20463;-83
2023/09/01 01:27:32;;;;;;;14.90;14.40;;;17.50;41.10;;;;;;4972022;28;20503;-83
2023/09/01 01:30:27;;;;;;;14.30;13.90;;;17.40;1.00;;;;;;4971666;28;21130;-83
2023/09/01 01:33:19;;;;;;;14.87;14.40;;;17.30;63.30;;;;;;4974066;28;20532;-85
2023/09/01 01:36:22;;;;;;;14.70;14.10;;;17.40;59.60;;;;;;4970059;28;20477;-84
2023/09/01 01:39:10;;;;;;;14.33;13.87;;;17.40;99.90;;;;;;4945702;28;20466;-84
2023/09/01 01:42:00;;;;;;;14.20;13.73;;;17.40;99.90;;;;;;4968946;28;20465;-85
2023/09/01 01:45:16;;;;;;;15.03;14.37;;;17.40;99.10;;;;;;4974140;28;20449;-83
2023/09/01 01:48:15;;;;;;;16.20;15.05;;;17.40;99.90;;;;;;4965720;28;21121;-84
2023/09/01 01:51:17;;;;;;;14.30;13.90;;;17.40;99.90;;;;;;4961816;28;20194;-82
2023/09/01 01:54:27;;;;;;;14.60;14.10;;;17.40;99.90;;;;;;4971536;28;20462;-83
2023/09/01 02:00:27;;;;;;;14.30;13.90;;;17.40;99.90;;;;;;4942975;28;20726;-83
2023/09/01 02:03:00;;;;;;;15.10;14.60;;;17.30;99.90;;;;;;4968896;28;20531;-82
2023/09/01 02:09:09;;;;;;;15.45;14.95;;;17.30;1.00;;;;;;4972458;28;20995;-83
2023/09/01 02:11:59;;;;;;;15.60;14.90;;;17.20;1.00;;;;;;4969781;28;20195;-84
2023/09/01 02:14:49;;;;;;;15.27;14.63;;;17.30;1.00;;;;;;4970657;28;21006;-84
2023/09/01 02:17:33;;;;;;;15.20;14.47;;;17.30;1.00;;;;;;4970370;28;20466;-84
2023/09/01 02:20:38;;;;;;;14.80;14.30;;;17.30;1.00;;;;;;4970897;28;20463;-83
2023/09/01 02:23:18;;;;;;;15.00;14.47;;;17.30;1.00;;;;;;4971478;28;20241;-84
2023/09/01 02:26:17;;;;;;;14.60;14.17;;;17.40;1.00;;;;;;4967816;28;20470;-83
2023/09/01 02:29:12;;;;;;;14.53;14.10;;;17.40;1.00;;;;;;4972597;28;20467;-85
2023/09/01 02:32:32;;;;;;;14.73;14.23;;;17.30;39.00;;;;;;4969523;28;20502;-85
2023/09/01 02:35:16;;;;;;;14.70;14.20;;;17.30;99.90;;;;;;4968969;28;20486;-85
2023/09/01 02:38:17;;;;;;;14.57;14.17;;;17.30;77.60;;;;;;4972734;28;20463;-84
2023/09/01 02:40:56;;;;;;;15.73;14.60;;;17.40;99.90;;;;;;4969617;28;20459;-85
2023/09/01 02:43:41;;;;;;;14.87;14.37;;;17.30;99.90;;;;;;4966864;28;21026;-84
2023/09/01 02:46:27;;;;;;;14.87;14.30;;;17.30;99.90;;;;;;4968497;28;20573;-84
2023/09/01 02:49:28;;;;;;;14.73;14.23;;;17.40;99.90;;;;;;4959138;28;20465;-84
2023/09/01 02:52:11;;;;;;;14.87;14.40;;;17.30;99.90;;;;;;4966847;28;20472;-85
2023/09/01 02:55:08;;;;;;;14.70;14.30;;;17.30;99.90;;;;;;4968991;28;20928;-85
2023/09/01 03:01:22;;;;;;;15.60;15.00;;;17.40;99.90;;;;;;4968402;28;20255;-84
2023/09/01 03:04:06;;;;;;;14.63;14.23;;;17.40;99.90;;;;;;4969175;28;21096;-84
2023/09/01 03:06:53;;;;;;;14.90;14.30;;;17.40;99.90;;;;;;4941730;28;20468;-85
2023/09/01 03:09:36;;;;;;;14.67;14.07;;;17.50;99.90;;;;;;4970005;28;20466;-84
2023/09/01 03:12:44;;;;;;;15.20;14.63;;;17.50;99.90;;;;;;4969110;28;20489;-84
2023/09/01 03:15:28;;;;;;;14.77;14.20;;;17.50;99.90;;;;;;4966819;28;20932;-85
2023/09/01 03:18:11;;;;;;;15.37;14.80;;;17.50;99.90;;;;;;4969167;28;20571;-84
2023/09/01 03:21:01;;;;;;;14.93;14.43;;;17.50;99.90;;;;;;4951844;28;20558;-85
2023/09/01 03:23:53;;;;;;;15.33;14.70;;;17.50;99.90;;;;;;4969822;28;20517;-85
2023/09/01 03:26:34;;;;;;;15.53;14.67;;;17.50;99.90;;;;;;4971128;28;20503;-85
2023/09/01 03:29:09;;;;;;;14.90;14.40;;;17.50;99.90;;;;;;4952798;28;20488;-84
2023/09/01 03:32:08;;;;;;;15.13;14.53;;;17.50;99.90;;;;;;4966093;28;20461;-85
2023/09/01 03:38:13;;;;;;;14.77;14.17;;;17.50;99.90;;;;;;4969667;28;20543;-85
2023/09/01 03:40:58;;;;;;;15.20;14.50;;;17.50;99.90;;;;;;4972466;28;20463;-84
2023/09/01 03:43:56;;;;;;;14.90;14.40;;;17.50;99.90;;;;;;4953825;28;20483;-84
2023/09/01 03:50:01;;;;;;;14.67;14.27;;;17.50;99.90;;;;;;4965875;28;20470;-85
2023/09/01 03:52:45;;;;;;;15.35;14.65;;;17.50;99.90;;;;;;4964721;28;20494;-85
2023/09/01 03:55:45;;;;;;;14.93;14.53;;;17.50;99.90;;;;;;4964671;28;20551;-83
2023/09/01 03:58:35;;;;;;;14.83;14.43;;;17.60;99.90;;;;;;4967000;28;20967;-85
2023/09/01 04:01:24;;;;;;;15.37;14.60;;;17.60;99.90;;;;;;4967044;28;22562;-84
2023/09/01 04:04:06;;;;;;;15.00;14.23;;;17.50;99.90;;;;;;4971129;28;20497;-85
2023/09/01 04:07:01;;;;;;;14.60;14.10;;;17.50;99.90;;;;;;4953183;28;20541;-83
2023/09/01 04:09:58;;;;;;;15.20;14.70;;;17.50;99.90;;;;;;4974742;28;20906;-84
2023/09/01 04:13:17;;;;;;;14.23;13.83;;;17.50;1.00;;;;;;4967136;28;20483;-84
2023/09/01 04:19:12;;;;;;;14.40;13.90;;;17.40;1.00;;;;;;4966977;28;21027;-84
2023/09/01 04:22:24;;;;;;;14.63;14.13;;;17.50;99.90;;;;;;4920106;28;20489;-85
2023/09/01 04:25:14;;;;;;;15.00;14.50;;;17.40;1.00;;;;;;4965957;28;20973;-85
2023/09/01 04:40:41;;;;;;;15.10;14.70;;;17.40;99.90;;;;;;2475343;23;21030;-85
2023/09/01 04:43:20;;;;;;;15.27;14.67;;;17.40;1.00;;;;;;4980408;28;20569;-84
2023/09/01 04:46:02;;;;;;;15.30;14.80;;;17.40;1.00;;;;;;4979328;28;20465;-84
2023/09/01 04:48:51;;;;;;;15.27;14.60;;;17.30;99.90;;;;;;4983552;28;20485;-85
2023/09/01 04:51:48;;;;;;;15.37;14.77;;;17.40;99.90;;;;;;4973765;28;20975;-84
2023/09/01 04:54:43;;;;;;;16.00;15.40;;;17.30;99.90;;;;;;4981539;28;20461;-83
2023/09/01 04:57:26;;;;;;;15.30;14.50;;;17.30;1.00;;;;;;4988015;28;21013;-84
2023/09/01 05:00:20;;;;;;;15.33;14.83;;;17.40;1.00;;;;;;4985358;28;20461;-84
2023/09/01 05:03:07;;;;;;;14.80;14.40;;;17.40;99.90;;;;;;4989430;28;20485;-84
2023/09/01 05:06:18;;;;;;;15.60;15.00;;;17.50;99.90;;;;;;4986892;28;20446;-84
2023/09/01 05:09:00;;;;;;;14.90;14.50;;;17.50;99.90;;;;;;4990086;28;20211;-84
2023/09/01 05:12:03;;;;;;;15.57;15.07;;;17.60;99.90;;;;;;4987628;28;20465;-84
2023/09/01 05:14:40;;;;;;;15.48;14.98;;;17.60;1.00;;;;;;4967557;28;20528;-83
2023/09/01 05:17:25;;;;;;;15.07;14.50;;;17.60;85.30;;;;;;4969849;28;20298;-85
2023/09/01 05:20:10;;;;;;;15.23;14.63;;;17.60;1.00;;;;;;4988026;28;20988;-84
2023/09/01 05:23:07;;;;;;;15.77;15.03;;;17.60;1.00;;;;;;4993981;28;20569;-85
2023/09/01 05:28:57;;;;;;;14.93;14.23;;;17.60;13.80;;;;;;4988459;28;21129;-85
2023/09/01 05:31:47;;;;;;;14.87;14.37;;;17.60;1.00;;;;;;4972626;28;20457;-85
2023/09/01 05:34:35;;;;;;;14.87;14.47;;;17.60;99.90;;;;;;4990197;28;20467;-84
2023/09/01 05:37:16;;;;;;;14.60;14.20;;;17.60;99.90;;;;;;4990803;28;21212;-84
2023/09/01 05:43:21;;;;;;;15.63;14.82;;;17.60;99.90;;;;;;4984076;28;20464;-85
2023/09/01 05:46:08;;;;;;;15.67;15.17;;;17.60;99.90;;;;;;4972415;28;20310;-84
2023/09/01 05:49:22;;;;;;;15.50;14.80;;;17.60;99.90;;;;;;4986099;28;20446;-84
2023/09/01 05:52:19;;;;;;;15.30;14.60;;;17.60;1.00;;;;;;4990701;28;20499;-84
2023/09/01 05:55:41;;;;;;;15.10;14.60;;;17.60;1.00;;;;;;4991458;28;20187;-84
2023/09/01 05:58:29;;;;;;;15.17;14.67;;;17.60;1.00;;;;;;4990826;28;20482;-86
2023/09/01 06:01:36;;;;;;;14.60;14.20;;;17.60;99.90;;;;;;4984776;28;20450;-85
2023/09/01 06:04:30;;;;;;;14.90;14.40;;;17.60;1.00;;;;;;4991592;28;20505;-85
2023/09/01 06:07:37;;;;;;;15.90;15.20;;;17.60;99.90;;;;;;4988980;28;20535;-85
2023/09/01 06:10:48;;;;;;;14.80;14.40;;;17.60;1.00;;;;;;4991021;28;20214;-83
2023/09/01 06:17:18;;;;;;;15.67;14.97;;;17.60;77.20;;;;;;4989342;28;20556;-83
2023/09/01 06:20:21;;;;;;;15.03;14.43;;;17.60;99.90;;;;;;4989981;28;20473;-84
2023/09/01 06:26:29;;;;;;;14.70;14.30;;;17.60;99.90;;;;;;4986893;28;20983;-83
2023/09/01 06:32:23;;;;;;;14.40;14.00;;;17.60;99.90;;;;;;4989076;28;20547;-84
2023/09/01 06:35:21;;;;;;;14.77;14.37;;;17.60;99.90;;;;;;4989735;28;20450;-83
2023/09/01 06:38:20;;;;;;;14.50;14.10;;;17.60;99.90;;;;;;4972293;28;20482;-84
2023/09/01 06:41:03;;;;;;;14.90;14.50;;;17.60;1.00;;;;;;4988679;28;20497;-84
2023/09/01 06:44:02;;;;;;;;;;;;;;;;;;;;;
2023/09/01 06:46:59;;;;;;;15.43;14.93;;;17.60;1.00;;;;;;4987229;28;20976;-82
2023/09/01 06:53:27;;;;;;;14.87;14.47;;;17.70;1.00;;;;;;4994739;23;20497;-83
2023/09/01 06:56:26;;;;;;;14.10;13.70;;;17.60;1.00;;;;;;4983951;28;21087;-83
2023/09/01 06:59:29;;;;;;;15.30;14.60;;;17.70;1.00;;;;;;4965439;28;20480;-83
2023/09/01 07:02:48;;;;;;;14.80;14.40;;;17.70;1.00;;;;;;4979181;28;20909;-83
2023/09/01 07:06:03;;;;;;;15.20;14.70;;;17.70;1.00;;;;;;4980971;28;20598;-83
2023/09/01 07:09:10;;;;;;;15.60;15.10;;;17.80;1.00;;;;;;4980163;28;20447;-83
2023/09/01 07:14:43;;;;;;;14.50;14.10;;;17.90;1.00;;;;;;4883577;29;20635;-84
2023/09/01 07:17:30;;;;;;;14.87;14.33;;;17.90;1.00;;;;;;4879414;29;20570;-84
2023/09/01 07:20:36;;;;;;;14.60;14.20;;;17.80;1.00;;;;;;4882203;29;20983;-83
2023/09/01 07:23:40;;;;;;;14.70;14.30;;;17.90;1.00;;;;;;4863603;29;20568;-82
2023/09/01 07:26:30;;;;;;;14.93;14.50;;;17.90;1.00;;;;;;4866017;29;20478;-84
2023/09/01 07:29:28;;;;;;;14.83;14.43;;;18.00;1.00;;;;;;4867344;29;20195;-84
2023/09/01 07:32:49;;;;;;;14.50;13.90;;;18.00;1.00;;;;;;4850808;29;20480;-84
2023/09/01 07:35:33;;;;;;;14.80;14.40;;;18.10;1.00;;;;;;4854463;29;20476;-84
2023/09/01 07:39:11;;;;;;;15.23;14.80;;;18.30;1.00;;;;;;4870662;29;20469;-84
2023/09/01 07:42:08;;;;;;;15.37;14.87;;;18.40;1.00;;;;;;4867165;29;20492;-84
2023/09/01 07:45:03;;;;;;;15.10;14.70;;;18.50;99.90;;;;;;4870365;29;20977;-84
2023/09/01 07:54:49;;;;;;;15.40;14.90;;;18.50;1.00;;;;;;4870680;29;20456;-84
2023/09/01 07:57:47;;;;;;;14.80;14.40;;;18.50;99.90;;;;;;4877370;29;20839;-84
2023/09/01 08:00:47;;;;;;;;;;;;;;;;;;;;;
2023/09/01 08:03:50;;;;;;;14.90;14.50;;;18.50;99.90;;;;;;4884874;29;21009;-84
2023/09/01 08:06:47;;;;;;;15.00;14.50;;;18.60;99.90;;;;;;4887260;29;20557;-83
2023/09/01 08:09:52;;;;;;;15.33;14.93;;;18.70;99.90;;;;;;4886948;29;20454;-82
2023/09/01 08:13:08;;;;;;;15.27;14.88;;;18.80;99.90;;;;;;4952821;23;20522;-82
2023/09/01 08:22:55;;;;;;;15.10;14.50;;;19.10;99.90;;;;;;4901904;29;20472;-83
2023/09/01 08:25:40;;;;;;;14.80;14.40;;;19.10;97.40;;;;;;4901856;29;20442;-83
2023/09/01 08:28:18;;;;;;;15.50;15.00;;;19.00;1.00;;;;;;4898318;29;20469;-82
2023/09/01 08:30:53;;;;;;;14.90;14.50;;;19.00;1.00;;;;;;4886084;29;20454;-82
2023/09/01 08:33:44;;;;;;;14.93;14.50;;;19.00;1.00;;;;;;4905854;29;20469;-82
2023/09/01 08:36:45;;;;;;;15.33;14.83;;;19.00;99.90;;;;;;4904016;29;20454;-82
2023/09/01 08:39:39;;;;;;;15.00;14.60;;;19.00;1.00;;;;;;4884886;29;20926;-82
2023/09/01 08:42:58;;;;;;;;;;;;;;;;;;;;;
2023/09/01 08:45:47;;;;;;;15.30;14.70;;;19.10;49.00;;;;;;4905309;29;20470;-83
2023/09/01 08:48:49;;;;;;;15.63;15.13;;;19.20;1.00;;;;;;4904748;29;20478;-83
2023/09/01 08:51:33;;;;;;;15.60;15.10;;;19.40;17.00;;;;;;4901678;29;20455;-82
2023/09/01 08:54:19;;;;;;;16.70;16.10;;;19.40;99.90;;;;;;4905210;29;20821;-83
2023/09/01 08:57:27;;;;;;;16.20;15.60;;;19.50;11.70;;;;;;4903646;29;21468;-83
2023/09/01 09:00:15;;;;;;;16.00;15.40;;;19.50;99.90;;;;;;4905209;29;20577;-82
2023/09/01 09:03:03;;;;;;;17.35;16.65;;;19.50;99.90;;;;;;4905961;29;20472;-82
2023/09/01 09:06:02;;;;;;;16.30;15.70;;;19.70;99.90;;;;;;4901920;29;20222;-83
2023/09/01 09:09:18;;;;;;;16.40;15.90;;;19.90;1.00;;;;;;4907167;29;20541;-82
2023/09/01 09:15:07;;;;;;;16.67;16.07;;;20.10;99.90;;;;;;4906938;29;20237;-81
2023/09/01 09:17:57;;;;;;;18.13;17.27;;;20.10;99.90;;;;;;4906541;29;20465;-82
2023/09/01 09:21:18;;;;;;;16.23;15.77;;;20.10;99.90;;;;;;4907324;29;20455;-82
2023/09/01 09:24:47;;;;;;;;;;;;;;;;;;;;;
2023/09/01 09:27:46;;;;;;;16.53;15.93;;;20.20;1.00;;;;;;4903211;29;20481;-83
2023/09/01 09:30:25;;;;;;;16.60;16.10;;;20.10;99.90;;;;;;4902760;29;20458;-83
2023/09/01 09:33:27;;;;;;;17.37;16.57;;;20.00;1.00;;;;;;4904211;29;20950;-82
2023/09/01 09:36:36;;;;;;;16.73;16.10;;;19.80;1.00;;;;;;4903536;29;20463;-82
2023/09/01 09:39:41;;;;;;;16.30;15.60;;;19.70;99.90;;;;;;4895320;29;20516;-83
2023/09/01 09:42:42;;;;;;;18.00;17.10;;;19.70;1.00;;;;;;4905282;29;20478;-82
2023/09/01 09:45:39;;;;;;;16.70;16.10;;;19.70;1.00;;;;;;4886759;29;20473;-83
2023/09/01 09:48:46;;;;;;;16.80;16.20;;;19.80;82.40;;;;;;4904047;29;20481;-82
2023/09/01 09:51:44;;;;;;;16.47;15.97;;;19.80;70.40;;;;;;4882461;29;20467;-82
2023/09/01 09:54:24;;;;;;;16.03;15.50;;;19.60;1.00;;;;;;4905074;29;20450;-82
2023/09/01 09:57:14;;;;;;;17.63;16.93;;;19.60;99.90;;;;;;4910762;29;20499;-82
2023/09/01 10:00:25;;;;;;;16.57;16.07;;;19.60;99.90;;;;;;4908799;29;20484;-83
2023/09/01 10:03:33;;;;;;;16.60;16.00;;;19.60;1.00;;;;;;4902159;29;20512;-82
2023/09/01 10:06:19;;;;;;;16.77;16.20;;;19.60;54.40;;;;;;4904496;29;20206;-81
2023/09/01 10:12:47;;;;;;;17.20;16.60;;;19.80;99.90;;;;;;4902958;29;20226;-82
2023/09/01 10:16:17;;;;;;;16.67;16.17;;;19.80;99.90;;;;;;4889473;29;20613;-82
2023/09/01 10:19:19;;;;;;;17.20;16.40;;;19.80;1.00;;;;;;4895253;29;20494;-83
2023/09/01 10:22:11;;;;;;;17.40;16.30;;;19.90;1.00;;;;;;4903527;29;20474;-83
2023/09/01 10:28:29;;;;;;;17.30;16.70;;;19.90;1.00;;;;;;4850269;29;20481;-81
2023/09/01 10:34:38;;;;;;;16.90;16.30;;;20.00;1.00;;;;;;4842731;29;20552;-82
2023/09/01 10:37:48;;;;;;;16.53;16.00;;;20.10;1.00;;;;;;4843781;29;20454;-83
2023/09/01 10:40:55;;;;;;;16.77;16.17;;;20.00;99.90;;;;;;4842966;29;21099;-82
2023/09/01 10:44:10;;;;;;;16.53;15.93;;;20.10;99.90;;;;;;4835793;29;20524;-84
2023/09/01 10:47:02;;;;;;;16.85;16.25;;;20.00;99.90;;;;;;4846601;29;20465;-83
2023/09/01 10:50:01;;;;;;;16.03;15.43;;;20.20;99.90;;;;;;4844406;29;20843;-83
2023/09/01 10:53:23;;;;;;;16.23;15.63;;;20.20;99.90;;;;;;4845730;29;20489;-83
2023/09/01 10:56:28;;;;;;;16.33;15.77;;;20.20;99.90;;;;;;4845274;29;20467;-83
2023/09/01 10:59:36;;;;;;;16.40;15.90;;;20.20;99.90;;;;;;4846897;29;20495;-83
2023/09/01 11:02:31;;;;;;;16.03;15.53;;;20.20;99.90;;;;;;4826580;29;20477;-82
2023/09/01 11:12:13;;;;;;;16.20;15.67;;;20.30;1.00;;;;;;4895552;29;20466;-81
2023/09/01 11:15:06;;;;;;;15.93;15.53;;;20.40;1.00;;;;;;4898550;29;20465;-83
2023/09/01 11:18:11;;;;;;;16.90;16.30;;;20.50;1.00;;;;;;4898316;29;20556;-82
2023/09/01 11:27:13;;;;;;;15.70;15.20;;;20.90;99.90;;;;;;4899983;29;20546;-82
2023/09/01 11:33:25;;;;;;;15.63;15.23;;;21.10;99.90;;;;;;4889149;29;20490;-82
2023/09/01 11:36:23;;;;;;;15.57;14.97;;;21.20;99.90;;;;;;4889289;29;20582;-83
2023/09/01 11:39:13;;;;;;;15.57;15.17;;;21.20;99.90;;;;;;4900805;29;20462;-82
2023/09/01 11:42:27;;;;;;;15.43;15.03;;;21.10;99.90;;;;;;4895935;29;20503;-83
2023/09/01 11:45:38;;;;;;;15.50;15.10;;;21.20;54.80;;;;;;4896594;29;20472;-82
2023/09/01 11:48:38;;;;;;;15.63;15.23;;;21.20;57.80;;;;;;4899329;29;20529;-82
2023/09/01 11:51:50;;;;;;;15.10;14.63;;;21.20;53.90;;;;;;4897674;29;20458;-83
2023/09/01 11:58:27;;;;;;;15.77;15.20;;;21.50;30.80;;;;;;4900577;29;20837;-82
2023/09/01 12:01:58;;;;;;;15.80;15.33;;;21.50;49.00;;;;;;4897015;29;20499;-84
2023/09/01 12:05:00;;;;;;;15.83;15.33;;;21.50;1.00;;;;;;4875763;29;20560;-82
2023/09/01 12:15:27;;;;;;;15.33;14.83;;;21.60;1.00;;;;;;4896173;29;20466;-82
2023/09/01 12:18:39;;;;;;;15.25;14.85;;;21.70;1.00;;;;;;4901851;29;20454;-82
2023/09/01 12:25:16;;;;;;;15.40;15.00;;;21.80;1.00;;;;;;4906623;29;20802;-82
2023/09/01 12:31:59;;;;;;;15.13;14.73;;;21.70;1.00;;;;;;4895852;29;20457;-82
2023/09/01 12:35:21;;;;;;;15.40;15.00;;;21.70;1.00;;;;;;4896463;29;20458;-83
2023/09/01 12:38:24;;;;;;;16.20;15.60;;;21.70;1.00;;;;;;4888684;29;20517;-83
2023/09/01 12:41:06;;;;;;;15.30;14.90;;;21.70;1.00;;;;;;4905989;29;20488;-83
2023/09/01 12:44:22;;;;;;;15.63;15.20;;;21.70;1.00;;;;;;4889269;29;21042;-82
2023/09/01 12:47:08;;;;;;;14.90;14.50;;;21.80;1.00;;;;;;4901432;29;25113;-83
2023/09/01 12:50:33;;;;;;;;;;;;;;;;;;;;;
2023/09/01 12:53:30;;;;;;;15.33;14.93;;;21.70;1.00;;;;;;4889998;29;20506;-83
2023/09/01 12:56:15;;;;;;;15.03;14.63;;;21.80;1.00;;;;;;4904212;29;20468;-82
2023/09/01 13:02:27;;;;;;;;;;;;;;;;;;;;;
2023/09/01 13:05:24;;;;;;;14.93;14.33;;;21.90;1.00;;;;;;4901799;29;20465;-83
2023/09/01 13:08:35;;;;;;;14.77;14.27;;;21.90;1.00;;;;;;4906925;29;20472;-83
2023/09/01 13:11:46;;;;;;;14.87;14.37;;;22.00;1.00;;;;;;4891346;29;20466;-83
2023/09/01 13:14:46;;;;;;;14.40;14.00;;;22.00;1.00;;;;;;4889678;29;20526;-84
2023/09/01 13:18:04;;;;;;;15.13;14.73;;;21.90;1.00;;;;;;4906857;29;20431;-82
2023/09/01 13:20:48;;;;;;;14.13;13.60;;;22.00;1.00;;;;;;4906634;29;20478;-82
2023/09/01 13:27:00;;;;;;;14.10;13.70;;;22.00;1.00;;;;;;4899878;29;20462;-82
2023/09/01 13:29:53;;;;;;;13.80;13.50;;;22.10;1.00;;;;;;4898406;29;20456;-83
2023/09/01 13:39:49;;;;;;;14.13;13.73;;;21.90;1.00;;;;;;4903263;29;20684;-84
2023/09/01 13:43:16;;;;;;;13.77;13.17;;;22.00;1.00;;;;;;4893132;29;20477;-82
2023/09/01 13:50:05;;;;;;;;;;;;;;;;;;;;;
2023/09/01 13:52:51;;;;;;;14.50;14.10;;;21.90;1.00;;;;;;4902262;29;20949;-84
2023/09/01 13:56:16;;;;;;;15.37;14.80;;;21.80;1.00;;;;;;4867011;29;20529;-82
2023/09/01 13:59:22;;;;;;;14.40;14.00;;;21.80;1.00;;;;;;4901280;29;20978;-82
2023/09/01 14:02:31;;;;;;;14.33;13.97;;;21.70;1.00;;;;;;4902139;29;20491;-82
2023/09/01 14:12:46;;;;;;;14.37;13.87;;;21.80;1.00;;;;;;4892731;29;20479;-82
2023/09/01 14:19:01;;;;;;;13.97;13.57;;;21.80;1.00;;;;;;4904356;29;20227;-83
2023/09/01 14:28:27;;;;;;;14.20;13.70;;;22.20;1.00;;;;;;4906707;29;21033;-83
2023/09/01 14:31:30;;;;;;;;;;;;;;;;;;;;;
2023/09/01 14:34:46;;;;;;;14.00;13.60;;;22.30;99.90;;;;;;4889875;29;20523;-84
2023/09/01 14:37:33;;;;;;;13.20;12.90;;;22.20;99.90;;;;;;4911408;29;20449;-85
2023/09/01 14:40:33;;;;;;;14.07;13.68;;;22.20;99.90;;;;;;4904271;29;20450;-82
2023/09/01 14:43:38;;;;;;;13.50;13.20;;;22.30;99.90;;;;;;4901615;29;20312;-81
2023/09/01 14:46:57;;;;;;;13.00;12.70;;;22.40;99.90;;;;;;4906031;29;20466;-82
2023/09/01 14:49:57;;;;;;;13.30;12.90;;;22.40;99.90;;;;;;4892574;29;20477;-83
2023/09/01 14:52:51;;;;;;;13.40;13.00;;;22.50;99.90;;;;;;4901734;29;21143;-82
2023/09/01 14:55:49;;;;;;;13.70;13.20;;;22.50;99.90;;;;;;4886222;29;20947;-82
2023/09/01 15:05:23;;;;;;;13.43;13.13;;;22.40;99.90;;;;;;4845351;29;20514;-82
2023/09/01 15:08:20;;;;;;;14.30;13.90;;;22.30;99.90;;;;;;4860475;29;20497;-81
2023/09/01 15:11:15;;;;;;;13.10;12.80;;;22.30;99.90;;;;;;4900179;29;20461;-82
2023/09/01 15:14:10;;;;;;;14.93;14.23;;;22.20;99.90;;;;;;4895594;29;20497;-82
2023/09/01 15:17:47;;;;;;;14.00;13.60;;;22.20;99.90;;;;;;4894659;29;20558;-82
2023/09/01 15:21:15;;;;;;;13.60;13.30;;;22.20;99.90;;;;;;4899734;29;20561;-82
2023/09/01 15:24:05;;;;;;;13.90;13.60;;;22.10;99.90;;;;;;4897061;29;20480;-82
2023/09/01 15:27:32;;;;;;;14.93;14.27;;;22.20;99.90;;;;;;4893793;29;21121;-83
2023/09/01 15:30:51;;;;;;;14.50;14.10;;;22.20;99.90;;;;;;4882231;29;21025;-83
2023/09/01 15:41:57;;;;;;;14.00;13.70;;;22.40;99.90;;;;;;4854707;29;20483;-83
2023/09/01 15:48:32;;;;;;;13.70;13.40;;;22.30;99.90;;;;;;4889264;29;22061;-80
2023/09/01 15:51:37;;;;;;;14.60;14.20;;;22.30;99.90;;;;;;4895468;29;20216;-83
2023/09/01 15:54:59;;;;;;;14.57;14.17;;;22.30;99.90;;;;;;4898924;29;20479;-83
2023/09/01 16:01:27;;;;;;;14.80;14.33;;;22.30;99.90;;;;;;4905015;29;20194;-82
2023/09/01 16:04:10;;;;;;;14.63;14.23;;;22.30;99.90;;;;;;4900319;29;20497;-81
2023/09/01 16:10:31;;;;;;;14.67;14.27;;;22.20;99.90;;;;;;4900329;29;20516;-82
2023/09/01 16:13:44;;;;;;;14.67;14.10;;;22.20;99.90;;;;;;4903409;29;20488;-82
2023/09/01 16:16:32;;;;;;;13.70;13.40;;;22.20;99.90;;;;;;4905480;29;20952;-82
2023/09/01 16:19:50;;;;;;;13.67;13.37;;;22.20;99.90;;;;;;4902404;29;20210;-82
2023/09/01 16:22:39;;;;;;;14.50;13.90;;;22.20;99.90;;;;;;4900628;29;20486;-83
2023/09/01 16:25:24;;;;;;;14.00;13.60;;;22.20;99.90;;;;;;4903040;29;20551;-81
2023/09/01 16:28:19;;;;;;;14.40;13.73;;;22.20;99.90;;;;;;4902781;29;20462;-81
2023/09/01 16:31:07;;;;;;;14.43;13.93;;;22.30;99.90;;;;;;4896070;29;21057;-82
2023/09/01 16:33:45;;;;;;;13.97;13.57;;;22.30;99.90;;;;;;4903121;29;20476;-83
2023/09/01 16:36:42;;;;;;;14.30;13.90;;;22.30;99.90;;;;;;4902105;29;20453;-82
2023/09/01 16:39:44;;;;;;;14.30;13.90;;;22.30;99.90;;;;;;4898038;29;20471;-82
2023/09/01 16:45:56;;;;;;;14.37;14.00;;;22.20;99.90;;;;;;4897362;29;20470;-82
2023/09/01 16:52:03;;;;;;;15.00;14.40;;;22.20;99.90;;;;;;4907463;29;21016;-82
2023/09/01 16:55:09;;;;;;;14.77;14.17;;;22.20;99.90;;;;;;4905944;29;20466;-84
2023/09/01 16:58:21;;;;;;;14.60;14.20;;;22.10;99.90;;;;;;4905266;29;20891;-83
2023/09/01 17:01:39;;;;;;;14.60;14.20;;;22.10;99.90;;;;;;4902082;29;20463;-84
2023/09/01 17:07:40;;;;;;;15.10;14.60;;;22.00;99.90;;;;;;4890766;29;20460;-83
2023/09/01 17:10:27;;;;;;;14.90;14.40;;;22.00;99.90;;;;;;4907346;29;20465;-83
2023/09/01 17:13:18;;;;;;;14.90;14.50;;;22.00;99.90;;;;;;4906006;29;21074;-84
2023/09/01 17:16:16;;;;;;;15.43;14.93;;;22.00;99.90;;;;;;4903162;29;20462;-85
2023/09/01 17:19:26;;;;;;;15.23;14.60;;;22.00;99.90;;;;;;4904097;29;20989;-83
2023/09/01 17:22:13;;;;;;;15.07;14.57;;;21.90;99.90;;;;;;4915055;23;20489;-80
2023/09/01 17:28:29;;;;;;;;;;;;;;;;;;;;;
2023/09/01 17:31:55;;;;;;;14.40;14.00;;;21.90;99.90;;;;;;4904636;29;21082;-83
2023/09/01 17:34:48;;;;;;;14.07;13.73;;;21.90;99.90;;;;;;4884016;29;20205;-81
2023/09/01 17:44:01;;;;;;;14.67;14.20;;;21.80;99.90;;;;;;4863659;29;21022;-82
2023/09/01 17:47:05;;;;;;;14.73;14.33;;;21.80;99.90;;;;;;4882016;29;20509;-82
2023/09/01 17:50:22;;;;;;;15.17;14.67;;;21.70;99.90;;;;;;4884454;29;20448;-82
2023/09/01 17:56:16;;;;;;;15.80;15.20;;;21.60;99.90;;;;;;4866876;29;21036;-80
2023/09/01 17:59:05;;;;;;;15.80;15.20;;;21.60;99.90;;;;;;4886274;29;20949;-83
2023/09/01 18:01:54;;;;;;;15.40;14.90;;;21.60;99.90;;;;;;4868113;29;20463;-82
2023/09/01 18:04:51;;;;;;;15.60;15.10;;;21.50;99.90;;;;;;4881534;29;20537;-81
2023/09/01 18:10:20;;;;;;;15.40;14.90;;;21.40;1.00;;;;;;4876911;29;20621;-80
2023/09/01 18:13:09;;;;;;;15.60;15.10;;;21.40;1.00;;;;;;4882968;29;20489;-82
2023/09/01 18:15:49;;;;;;;15.60;15.00;;;21.40;1.00;;;;;;4882754;29;20468;-80
2023/09/01 18:18:33;;;;;;;15.13;14.53;;;21.30;1.00;;;;;;4869826;29;20547;-81
2023/09/01 18:21:34;;;;;;;15.50;15.00;;;21.30;1.00;;;;;;4883850;29;21328;-81
2023/09/01 18:24:34;;;;;;;15.93;15.43;;;21.20;1.00;;;;;;4882587;29;20526;-80
2023/09/01 18:27:33;;;;;;;14.50;14.10;;;21.10;1.00;;;;;;4888102;29;20445;-80
2023/09/01 18:33:11;;;;;;;15.40;14.80;;;21.00;1.00;;;;;;4872052;29;20488;-82
2023/09/01 18:36:01;;;;;;;14.77;14.30;;;21.00;1.00;;;;;;4890158;29;20490;-82
2023/09/01 18:38:49;;;;;;;14.83;14.33;;;21.00;1.00;;;;;;4893787;29;20202;-83
2023/09/01 18:44:49;;;;;;;14.67;14.27;;;21.00;1.00;;;;;;4890564;29;20474;-84
2023/09/01 18:50:53;;;;;;;14.30;13.80;;;21.00;1.00;;;;;;4893377;29;20491;-83